createdAt,value
2023-04-15T00:01:19.157Z,6.80
2023-04-15T00:03:47.813Z,6.90
2023-04-15T00:06:15.361Z,6.90
2023-04-15T00:08:42.739Z,6.80
2023-04-15T00:11:10.036Z,6.80
2023-04-15T00:13:37.861Z,6.80
2023-04-15T00:16:06.453Z,6.90
2023-04-15T00:18:34.166Z,6.90
2023-04-15T00:21:01.690Z,6.90
2023-04-15T00:23:29.113Z,6.80
2023-04-15T00:25:56.618Z,6.80
2023-04-15T00:28:24.160Z,6.90
2023-04-15T00:30:51.645Z,6.80
2023-04-15T00:33:19.087Z,6.80
2023-04-15T00:35:47.474Z,6.80
2023-04-15T00:38:14.767Z,6.80
2023-04-15T00:40:43.646Z,6.90
2023-04-15T00:43:11.007Z,6.80
2023-04-15T00:45:38.736Z,6.80
2023-04-15T00:48:06.274Z,6.80
2023-04-15T00:50:34.339Z,6.90
2023-04-15T00:53:01.909Z,6.90
2023-04-15T00:55:29.239Z,6.90
2023-04-15T00:57:57.607Z,6.90
2023-04-15T01:00:25.058Z,6.90
2023-04-15T01:02:53.164Z,6.90
2023-04-15T01:05:20.733Z,6.90
2023-04-15T01:07:48.928Z,6.80
2023-04-15T01:10:16.463Z,6.80
2023-04-15T01:12:44.624Z,6.80
2023-04-15T01:15:12.155Z,6.90
2023-04-15T01:17:40.075Z,6.90
2023-04-15T01:20:10.570Z,6.90
2023-04-15T01:22:39.543Z,6.90
2023-04-15T01:25:35.135Z,6.90
2023-04-15T01:28:03.262Z,6.90
2023-04-15T01:30:35.488Z,6.90
2023-04-15T01:33:03.143Z,6.80
2023-04-15T01:35:30.972Z,6.90
2023-04-15T01:38:04.980Z,6.90
2023-04-15T01:40:32.667Z,6.90
2023-04-15T01:43:01.205Z,6.90
2023-04-15T01:45:28.996Z,6.90
2023-04-15T01:47:56.367Z,6.90
2023-04-15T01:50:23.782Z,6.90
2023-04-15T01:52:51.120Z,6.90
2023-04-15T01:55:19.042Z,6.90
2023-04-15T01:57:46.612Z,6.90
2023-04-15T02:00:14.276Z,6.90
2023-04-15T02:02:42.983Z,6.90
2023-04-15T02:05:10.982Z,6.80
2023-04-15T02:07:38.338Z,6.90
2023-04-15T02:10:06.067Z,6.90
2023-04-15T02:12:36.328Z,6.90
2023-04-15T02:15:04.176Z,6.90
2023-04-15T02:17:35.225Z,6.90
2023-04-15T02:20:03.565Z,6.90
2023-04-15T02:22:32.554Z,6.90
2023-04-15T02:24:59.906Z,6.90
2023-04-15T02:27:28.555Z,6.90
2023-04-15T02:29:55.796Z,6.90
2023-04-15T02:32:24.512Z,6.90
2023-04-15T02:34:51.887Z,6.90
2023-04-15T02:37:20.453Z,6.90
2023-04-15T02:39:47.979Z,6.90
2023-04-15T02:42:16.317Z,6.90
2023-04-15T02:44:44.385Z,7.00
2023-04-15T02:47:11.997Z,6.90
2023-04-15T02:49:40.202Z,6.90
2023-04-15T02:52:07.886Z,6.90
2023-04-15T02:54:35.392Z,7.00
2023-04-15T02:57:03.998Z,6.90
2023-04-15T02:59:31.347Z,6.90
2023-04-15T03:02:01.163Z,6.90
2023-04-15T03:04:30.226Z,6.90
2023-04-15T03:06:57.640Z,6.90
2023-04-15T03:09:26.650Z,6.90
2023-04-15T03:11:54.960Z,6.90
2023-04-15T03:14:22.843Z,6.90
2023-04-15T03:16:51.966Z,6.90
2023-04-15T03:19:19.583Z,7.00
2023-04-15T03:21:46.945Z,7.00
2023-04-15T03:24:14.763Z,6.90
2023-04-15T03:26:42.115Z,6.90
2023-04-15T03:29:13.048Z,6.90
2023-04-15T03:31:41.555Z,6.90
2023-04-15T03:34:08.895Z,6.90
2023-04-15T03:36:37.108Z,6.90
2023-04-15T03:39:04.525Z,6.90
2023-04-15T03:41:33.036Z,7.00
2023-04-15T03:44:00.590Z,7.00
2023-04-15T03:46:28.128Z,7.00
2023-04-15T03:48:55.497Z,7.00
2023-04-15T03:51:22.834Z,7.00
2023-04-15T03:53:50.224Z,7.00
2023-04-15T03:56:17.564Z,7.00
2023-04-15T03:58:44.901Z,7.00
2023-04-15T04:01:12.227Z,7.00
2023-04-15T04:03:39.718Z,6.90
2023-04-15T04:06:08.067Z,6.90
2023-04-15T04:08:35.337Z,6.90
2023-04-15T04:11:02.724Z,7.00
2023-04-15T04:13:30.051Z,7.00
2023-04-15T04:15:57.452Z,7.00
2023-04-15T04:18:24.775Z,6.90
2023-04-15T04:20:52.185Z,7.00
2023-04-15T04:23:19.565Z,7.00
2023-04-15T04:25:47.698Z,7.00
2023-04-15T04:28:14.998Z,7.00
2023-04-15T04:30:42.409Z,7.00
2023-04-15T04:33:09.731Z,7.00
2023-04-15T04:35:37.842Z,7.00
2023-04-15T04:38:05.168Z,7.00
2023-04-15T04:40:32.545Z,7.00
2023-04-15T04:43:00.345Z,7.00
2023-04-15T04:45:27.654Z,7.00
2023-04-15T04:47:55.634Z,7.00
2023-04-15T04:50:22.958Z,7.00
2023-04-15T04:52:50.644Z,7.00
2023-04-15T04:55:18.294Z,7.00
2023-04-15T04:57:46.142Z,7.00
2023-04-15T05:00:14.096Z,7.10
2023-04-15T05:02:44.114Z,7.10
2023-04-15T05:05:11.980Z,7.10
2023-04-15T05:07:39.755Z,7.10
2023-04-15T05:10:08.061Z,7.10
2023-04-15T05:12:37.401Z,7.10
2023-04-15T05:15:06.268Z,7.10
2023-04-15T05:17:35.322Z,7.10
2023-04-15T05:20:03.734Z,7.20
2023-04-15T05:22:31.115Z,7.20
2023-04-15T05:24:58.411Z,7.20
2023-04-15T05:27:26.093Z,7.20
2023-04-15T05:29:53.488Z,7.20
2023-04-15T05:32:20.897Z,7.20
2023-04-15T05:34:48.252Z,7.20
2023-04-15T05:37:15.709Z,7.30
2023-04-15T05:39:43.041Z,7.30
2023-04-15T05:42:10.731Z,7.30
2023-04-15T05:44:38.109Z,7.40
2023-04-15T05:47:06.017Z,7.30
2023-04-15T05:49:33.304Z,7.40
2023-04-15T05:52:00.802Z,7.40
2023-04-15T05:54:28.090Z,7.40
2023-04-15T05:56:56.448Z,7.40
2023-04-15T05:59:23.722Z,7.40
2023-04-15T06:01:52.278Z,7.50
2023-04-15T06:04:19.859Z,7.50
2023-04-15T06:06:48.206Z,7.50
2023-04-15T06:09:15.959Z,7.60
2023-04-15T06:11:43.283Z,7.60
2023-04-15T06:14:10.622Z,7.60
2023-04-15T06:16:38.102Z,7.60
2023-04-15T06:19:05.419Z,7.70
2023-04-15T06:21:33.009Z,7.70
2023-04-15T06:24:03.830Z,7.70
2023-04-15T06:26:32.415Z,7.70
2023-04-15T06:28:59.884Z,7.70
2023-04-15T06:31:27.531Z,7.70
2023-04-15T06:33:54.982Z,7.80
2023-04-15T06:36:22.357Z,7.80
2023-04-15T06:38:49.628Z,7.80
2023-04-15T06:41:17.666Z,7.90
2023-04-15T06:43:45.021Z,7.80
2023-04-15T06:46:12.452Z,7.90
2023-04-15T06:48:39.756Z,8.00
2023-04-15T06:51:07.071Z,8.10
2023-04-15T06:53:35.654Z,8.10
2023-04-15T06:56:02.953Z,8.20
2023-04-15T06:58:30.225Z,8.30
2023-04-15T07:00:57.639Z,8.40
2023-04-15T07:03:25.076Z,8.40
2023-04-15T07:05:52.693Z,8.30
2023-04-15T07:08:20.746Z,8.40
2023-04-15T07:10:48.066Z,8.40
2023-04-15T07:13:15.736Z,8.50
2023-04-15T07:15:43.007Z,8.50
2023-04-15T07:18:10.333Z,8.60
2023-04-15T07:20:37.938Z,8.70
2023-04-15T07:23:05.248Z,8.70
2023-04-15T07:25:32.657Z,8.60
2023-04-15T07:28:00.121Z,8.60
2023-04-15T07:30:27.413Z,8.60
2023-04-15T07:32:54.790Z,8.70
2023-04-15T07:35:22.355Z,8.90
2023-04-15T07:37:49.684Z,8.90
2023-04-15T07:40:17.099Z,9.00
2023-04-15T07:42:44.474Z,9.00
2023-04-15T07:45:12.832Z,9.00
2023-04-15T07:47:41.592Z,9.00
2023-04-15T07:50:11.238Z,9.00
2023-04-15T07:52:39.492Z,8.90
2023-04-15T07:55:08.628Z,8.90
2023-04-15T07:57:36.908Z,8.90
2023-04-15T08:00:05.830Z,9.00
2023-04-15T08:02:40.730Z,9.00
2023-04-15T08:05:09.643Z,9.00
2023-04-15T08:07:38.468Z,9.20
2023-04-15T08:10:06.572Z,9.30
2023-04-15T08:12:33.927Z,9.50
2023-04-15T08:15:02.057Z,9.60
2023-04-15T08:17:29.397Z,9.80
2023-04-15T08:19:57.234Z,9.90
2023-04-15T08:22:24.554Z,10.00
2023-04-15T08:24:52.022Z,9.90
2023-04-15T08:27:19.462Z,10.00
2023-04-15T08:29:47.217Z,10.20
2023-04-15T08:32:15.024Z,10.30
2023-04-15T08:34:42.539Z,10.40
2023-04-15T08:37:11.491Z,10.60
2023-04-15T08:39:39.976Z,10.70
2023-04-15T08:42:15.881Z,10.70
2023-04-15T08:44:44.702Z,10.60
2023-04-15T08:47:14.908Z,10.50
2023-04-15T08:49:43.250Z,10.60
2023-04-15T08:52:10.808Z,10.60
2023-04-15T08:54:38.770Z,10.60
2023-04-15T08:57:06.944Z,10.50
2023-04-15T08:59:34.700Z,10.60
2023-04-15T09:02:02.978Z,10.60
2023-04-15T09:04:30.324Z,10.50
2023-04-15T09:06:58.409Z,10.60
2023-04-15T09:09:25.693Z,10.70
2023-04-15T09:11:53.131Z,10.80
2023-04-15T09:14:20.425Z,11.00
2023-04-15T09:17:02.208Z,11.00
2023-04-15T09:19:30.814Z,11.20
2023-04-15T09:21:59.725Z,11.40
2023-04-15T09:24:38.621Z,11.60
2023-04-15T09:27:06.497Z,11.80
2023-04-15T09:29:33.895Z,12.20
2023-04-15T09:32:11.800Z,12.40
2023-04-15T09:34:39.237Z,12.50
2023-04-15T09:37:07.669Z,12.60
2023-04-15T09:39:52.503Z,12.30
2023-04-15T09:42:26.980Z,11.50
2023-04-15T09:44:54.549Z,11.00
2023-04-15T09:47:28.349Z,10.60
2023-04-15T09:49:57.501Z,10.20
2023-04-15T09:52:25.018Z,9.90
2023-04-15T09:54:56.532Z,9.70
2023-04-15T09:57:24.440Z,9.50
2023-04-15T09:59:52.488Z,9.50
2023-04-15T10:02:21.574Z,9.40
2023-04-15T10:04:50.156Z,9.50
2023-04-15T10:07:20.684Z,9.50
2023-04-15T10:09:49.454Z,9.30
2023-04-15T10:12:18.258Z,9.30
2023-04-15T10:14:55.461Z,9.20
2023-04-15T10:17:23.615Z,9.20
2023-04-15T10:19:54.210Z,9.20
2023-04-15T10:22:23.426Z,9.10
2023-04-15T10:24:51.429Z,9.10
2023-04-15T10:27:20.446Z,9.10
2023-04-15T10:29:49.601Z,9.10
2023-04-15T10:32:20.668Z,9.00
2023-04-15T10:34:49.791Z,9.00
2023-04-15T10:37:35.161Z,8.90
2023-04-15T10:40:27.404Z,8.90
2023-04-15T10:42:56.625Z,8.90
2023-04-15T10:45:27.396Z,9.00
2023-04-15T10:48:03.334Z,9.10
2023-04-15T10:50:32.583Z,9.20
2023-04-15T10:53:04.908Z,9.20
2023-04-15T10:55:33.491Z,9.30
2023-04-15T10:58:02.395Z,9.40
2023-04-15T11:00:31.810Z,9.50
2023-04-15T11:03:07.920Z,9.50
2023-04-15T11:05:50.057Z,9.50
2023-04-15T11:08:17.877Z,9.50
2023-04-15T11:10:54.164Z,9.60
2023-04-15T11:13:22.994Z,9.70
2023-04-15T11:15:51.954Z,9.90
2023-04-15T11:18:24.676Z,10.00
2023-04-15T11:21:03.906Z,10.20
2023-04-15T11:23:39.807Z,10.40
2023-04-15T11:26:12.415Z,10.50
2023-04-15T11:28:41.881Z,10.50
2023-04-15T11:31:20.047Z,10.40
2023-04-15T11:34:01.635Z,10.40
2023-04-15T11:36:31.884Z,10.60
2023-04-15T11:38:59.965Z,10.50
2023-04-15T11:41:27.446Z,10.50
2023-04-15T11:43:54.789Z,10.50
2023-04-15T11:46:28.542Z,10.60
2023-04-15T11:48:55.874Z,10.60
2023-04-15T11:51:23.288Z,10.40
2023-04-15T11:53:52.045Z,10.40
2023-04-15T11:56:24.594Z,10.40
2023-04-15T11:59:03.069Z,10.50
2023-04-15T12:01:43.944Z,10.50
2023-04-15T12:04:17.847Z,10.60
2023-04-15T12:06:46.184Z,10.70
2023-04-15T12:09:15.351Z,10.60
2023-04-15T12:11:51.272Z,10.70
2023-04-15T12:14:29.641Z,10.60
2023-04-15T12:17:04.854Z,10.60
2023-04-15T12:19:41.804Z,10.60
2023-04-15T12:22:15.316Z,10.40
2023-04-15T12:24:48.783Z,10.40
2023-04-15T12:27:17.010Z,10.40
2023-04-15T12:29:44.655Z,10.40
2023-04-15T12:32:16.633Z,10.50
2023-04-15T12:34:50.989Z,10.80
2023-04-15T12:37:18.737Z,11.00
2023-04-15T12:39:51.627Z,11.20
2023-04-15T12:42:19.196Z,11.00
2023-04-15T12:44:47.060Z,10.90
2023-04-15T12:47:14.624Z,10.80
2023-04-15T12:49:42.305Z,10.80
2023-04-15T12:52:09.665Z,10.80
2023-04-15T12:54:37.277Z,10.80
2023-04-15T12:57:06.973Z,10.70
2023-04-15T12:59:35.625Z,10.80
2023-04-15T13:02:03.945Z,10.70
2023-04-15T13:04:32.073Z,10.70
2023-04-15T13:06:59.477Z,10.80
2023-04-15T13:09:27.148Z,10.80
2023-04-15T13:11:54.696Z,10.80
2023-04-15T13:14:22.200Z,10.90
2023-04-15T13:16:49.483Z,11.00
2023-04-15T13:19:16.985Z,10.80
2023-04-15T13:21:44.264Z,10.80
2023-04-15T13:24:11.623Z,10.80
2023-04-15T13:26:38.949Z,10.90
2023-04-15T13:29:06.801Z,10.90
2023-04-15T13:31:34.213Z,10.90
2023-04-15T13:34:01.672Z,10.90
2023-04-15T13:36:29.133Z,10.90
2023-04-15T13:38:57.060Z,11.00
2023-04-15T13:41:24.345Z,11.30
2023-04-15T13:43:51.676Z,11.30
2023-04-15T13:46:19.183Z,11.60
2023-04-15T13:48:46.576Z,11.80
2023-04-15T13:51:13.938Z,12.00
2023-04-15T13:53:41.318Z,11.90
2023-04-15T13:56:09.395Z,12.00
2023-04-15T13:58:37.819Z,12.30
2023-04-15T14:01:07.286Z,12.60
2023-04-15T14:03:35.872Z,12.80
2023-04-15T14:06:04.298Z,12.90
2023-04-15T14:08:31.751Z,13.00
2023-04-15T14:10:59.133Z,12.60
2023-04-15T14:13:26.412Z,12.40
2023-04-15T14:15:53.820Z,12.30
2023-04-15T14:18:21.211Z,12.50
2023-04-15T14:20:48.611Z,12.80
2023-04-15T14:23:16.212Z,13.00
2023-04-15T14:25:45.017Z,13.10
2023-04-15T14:28:13.499Z,13.10
2023-04-15T14:30:40.947Z,13.10
2023-04-15T14:33:08.242Z,12.90
2023-04-15T14:35:36.057Z,12.80
2023-04-15T14:38:03.523Z,12.90
2023-04-15T14:40:31.021Z,12.90
2023-04-15T14:42:58.316Z,12.90
2023-04-15T14:45:25.808Z,12.90
2023-04-15T14:47:53.630Z,13.10
2023-04-15T14:50:21.059Z,13.10
2023-04-15T14:52:48.377Z,13.20
2023-04-15T14:55:15.687Z,13.40
2023-04-15T14:57:43.389Z,13.50
2023-04-15T15:00:13.737Z,13.50
2023-04-15T15:02:43.743Z,13.60
2023-04-15T15:05:11.987Z,13.80
2023-04-15T15:07:41.075Z,14.00
2023-04-15T15:10:09.070Z,14.20
2023-04-15T15:12:36.734Z,14.10
2023-04-15T15:15:15.790Z,14.00
2023-04-15T15:17:54.024Z,14.20
2023-04-15T15:20:21.851Z,14.30
2023-04-15T15:22:49.301Z,14.40
2023-04-15T15:25:16.772Z,14.40
2023-04-15T15:27:44.231Z,14.20
2023-04-15T15:30:12.695Z,14.20
2023-04-15T15:32:40.981Z,14.00
2023-04-15T15:35:09.297Z,14.10
2023-04-15T15:37:36.926Z,14.10
2023-04-15T15:40:08.011Z,14.00
2023-04-15T15:42:36.279Z,14.00
2023-04-15T15:45:04.762Z,13.90
2023-04-15T15:47:32.271Z,13.80
2023-04-15T15:50:00.833Z,13.70
2023-04-15T15:52:28.246Z,13.40
2023-04-15T15:54:55.731Z,13.30
2023-04-15T15:57:23.133Z,13.20
2023-04-15T15:59:53.097Z,13.10
2023-04-15T16:02:43.116Z,13.10
2023-04-15T16:05:12.384Z,12.80
2023-04-15T16:07:39.649Z,12.50
2023-04-15T16:10:07.767Z,12.20
2023-04-15T16:12:35.160Z,12.00
2023-04-15T16:15:02.956Z,11.90
2023-04-15T16:17:30.334Z,11.80
2023-04-15T16:20:00.947Z,11.70
2023-04-15T16:22:28.879Z,11.60
2023-04-15T16:24:56.147Z,11.70
2023-04-15T16:27:23.453Z,11.60
2023-04-15T16:29:50.775Z,11.60
2023-04-15T16:32:18.337Z,11.60
2023-04-15T16:34:45.701Z,11.60
2023-04-15T16:37:13.004Z,11.60
2023-04-15T16:39:40.702Z,11.60
2023-04-15T16:42:08.115Z,11.50
2023-04-15T16:44:35.358Z,11.50
2023-04-15T16:47:03.149Z,11.40
2023-04-15T16:49:30.487Z,11.20
2023-04-15T16:51:58.012Z,11.20
2023-04-15T16:54:25.510Z,11.00
2023-04-15T16:56:52.884Z,10.90
2023-04-15T16:59:20.117Z,10.90
2023-04-15T17:01:47.730Z,10.80
2023-04-15T17:04:15.403Z,10.70
2023-04-15T17:06:43.129Z,10.70
2023-04-15T17:09:10.422Z,10.60
2023-04-15T17:11:41.037Z,10.50
2023-04-15T17:14:08.571Z,10.50
2023-04-15T17:16:36.406Z,10.40
2023-04-15T17:19:04.016Z,10.30
2023-04-15T17:21:31.938Z,10.30
2023-04-15T17:23:59.245Z,10.20
2023-04-15T17:26:26.702Z,10.20
2023-04-15T17:28:54.041Z,10.10
2023-04-15T17:31:21.452Z,10.00
2023-04-15T17:33:59.939Z,10.00
2023-04-15T17:36:36.233Z,9.90
2023-04-15T17:39:03.901Z,9.90
2023-04-15T17:41:31.500Z,9.80
2023-04-15T17:43:58.787Z,9.70
2023-04-15T17:46:27.030Z,9.60
2023-04-15T17:48:54.373Z,9.60
2023-04-15T17:51:21.823Z,9.60
2023-04-15T17:53:49.141Z,9.60
2023-04-15T17:56:16.527Z,9.50
2023-04-15T17:58:43.969Z,9.60
2023-04-15T18:01:11.271Z,9.50
2023-04-15T18:03:38.679Z,9.50
2023-04-15T18:06:06.352Z,9.40
2023-04-15T18:08:33.804Z,9.40
2023-04-15T18:11:01.075Z,9.40
2023-04-15T18:13:28.503Z,9.30
2023-04-15T18:15:55.922Z,9.20
2023-04-15T18:18:23.288Z,9.10
2023-04-15T18:20:50.576Z,9.10
2023-04-15T18:23:17.903Z,9.00
2023-04-15T18:25:45.261Z,8.90
2023-04-15T18:28:12.767Z,8.80
2023-04-15T18:30:40.051Z,8.80
2023-04-15T18:33:07.479Z,8.80
2023-04-15T18:35:35.236Z,8.80
2023-04-15T18:38:02.800Z,8.80
2023-04-15T18:40:30.298Z,8.90
2023-04-15T18:42:57.609Z,8.70
2023-04-15T18:45:24.993Z,8.60
2023-04-15T18:47:52.493Z,8.60
2023-04-15T18:50:19.901Z,8.60
2023-04-15T18:52:47.224Z,8.60
2023-04-15T18:55:15.706Z,8.60
2023-04-15T18:57:46.628Z,8.60
2023-04-15T19:00:17.138Z,8.50
2023-04-15T19:02:44.677Z,8.40
2023-04-15T19:05:12.141Z,8.40
2023-04-15T19:07:39.636Z,8.30
2023-04-15T19:10:07.953Z,8.30
2023-04-15T19:12:36.621Z,8.30
2023-04-15T19:15:04.622Z,8.30
2023-04-15T19:17:32.091Z,8.30
2023-04-15T19:19:59.645Z,8.30
2023-04-15T19:22:29.458Z,8.30
2023-04-15T19:24:56.799Z,8.20
2023-04-15T19:27:24.189Z,8.20
2023-04-15T19:29:51.554Z,8.20
2023-04-15T19:32:19.062Z,8.20
2023-04-15T19:34:46.416Z,8.10
2023-04-15T19:37:14.730Z,8.00
2023-04-15T19:39:42.041Z,8.00
2023-04-15T19:42:09.469Z,7.90
2023-04-15T19:44:37.354Z,7.80
2023-04-15T19:47:04.655Z,7.70
2023-04-15T19:49:31.995Z,7.70
2023-04-15T19:51:59.271Z,7.60
2023-04-15T19:54:27.096Z,7.70
2023-04-15T19:56:54.372Z,7.70
2023-04-15T19:59:21.700Z,7.70
2023-04-15T20:01:49.051Z,7.60
2023-04-15T20:04:16.475Z,7.60
2023-04-15T20:06:43.885Z,7.60
2023-04-15T20:09:11.592Z,7.50
2023-04-15T20:12:09.546Z,7.50
2023-04-15T20:14:26.629Z,7.50
2023-04-15T20:16:53.910Z,7.40
2023-04-15T20:19:21.200Z,7.30
2023-04-15T20:21:49.466Z,7.30
2023-04-15T20:24:19.885Z,7.20
2023-04-15T20:26:47.395Z,7.10
2023-04-15T20:29:14.750Z,7.00
2023-04-15T20:31:42.060Z,6.90
2023-04-15T20:34:11.817Z,6.90
2023-04-15T20:36:39.486Z,6.80
2023-04-15T20:39:07.024Z,6.80
2023-04-15T20:41:34.489Z,6.70
2023-04-15T20:44:01.880Z,6.70
2023-04-15T20:46:29.205Z,6.70
2023-04-15T20:48:56.540Z,6.60
2023-04-15T20:51:23.966Z,6.50
2023-04-15T20:53:51.416Z,6.60
2023-04-15T20:56:18.700Z,6.70
2023-04-15T20:58:46.249Z,6.70
2023-04-15T21:01:13.708Z,6.60
2023-04-15T21:03:41.486Z,6.50
2023-04-15T21:06:09.088Z,6.50
2023-04-15T21:08:36.392Z,6.50
2023-04-15T21:11:03.659Z,6.40
2023-04-15T21:13:31.011Z,6.40
2023-04-15T21:15:58.339Z,6.40
2023-04-15T21:18:25.696Z,6.50
2023-04-15T21:20:57.589Z,6.40
2023-04-15T21:23:25.743Z,6.50
2023-04-15T21:25:53.048Z,6.50
2023-04-15T21:28:20.395Z,6.50
2023-04-15T21:30:49.419Z,6.60
2023-04-15T21:33:17.778Z,6.60
2023-04-15T21:35:45.126Z,6.60
2023-04-15T21:38:12.422Z,6.50
2023-04-15T21:40:40.799Z,6.40
2023-04-15T21:43:08.548Z,6.40
2023-04-15T21:45:36.609Z,6.40
2023-04-15T21:48:08.102Z,6.40
2023-04-15T21:50:38.822Z,6.40
2023-04-15T21:53:07.678Z,6.40
2023-04-15T21:55:35.779Z,6.40
2023-04-15T21:58:03.095Z,6.40
2023-04-15T22:00:30.450Z,6.40
2023-04-15T22:02:58.018Z,6.50
2023-04-15T22:05:26.069Z,6.60
2023-04-15T22:07:53.382Z,6.60
2023-04-15T22:10:21.028Z,6.70
2023-04-15T22:12:48.315Z,6.60
2023-04-15T22:15:17.008Z,6.70
2023-04-15T22:17:44.306Z,6.70
2023-04-15T22:20:11.687Z,6.70
2023-04-15T22:22:43.814Z,6.70
2023-04-15T22:25:12.483Z,6.70
2023-04-15T22:27:39.781Z,6.70
2023-04-15T22:30:08.177Z,6.70
2023-04-15T22:32:35.578Z,6.70
2023-04-15T22:35:03.509Z,6.70
2023-04-15T22:37:30.879Z,6.70
2023-04-15T22:39:58.554Z,6.60
2023-04-15T22:42:25.981Z,6.60
2023-04-15T22:44:53.316Z,6.50
2023-04-15T22:47:20.785Z,6.50
2023-04-15T22:49:48.142Z,6.50
2023-04-15T22:52:27.489Z,6.50
2023-04-15T22:54:57.946Z,6.50
2023-04-15T22:57:25.479Z,6.50
2023-04-15T22:59:52.802Z,6.60
2023-04-15T23:02:20.190Z,6.60
2023-04-15T23:04:47.725Z,6.60
2023-04-15T23:07:15.097Z,6.60
2023-04-15T23:09:42.466Z,6.60
2023-04-15T23:12:10.120Z,6.60
2023-04-15T23:14:37.464Z,6.60
2023-04-15T23:17:04.748Z,6.60
2023-04-15T23:19:32.092Z,6.60
2023-04-15T23:21:59.395Z,6.50
2023-04-15T23:24:26.753Z,6.50
2023-04-15T23:26:54.695Z,6.50
2023-04-15T23:29:21.960Z,6.50
2023-04-15T23:31:49.282Z,6.50
2023-04-15T23:34:16.595Z,6.40
2023-04-15T23:36:43.920Z,6.30
2023-04-15T23:39:11.521Z,6.20
2023-04-15T23:41:39.026Z,6.10
2023-04-15T23:44:06.391Z,6.10
2023-04-15T23:46:33.789Z,6.10
2023-04-15T23:49:01.127Z,6.00
2023-04-15T23:51:28.477Z,5.90
2023-04-15T23:53:55.889Z,5.90
2023-04-15T23:56:23.249Z,5.80
2023-04-15T23:58:50.518Z,5.90
